Data for 04/24/2009

Time Sea-Level Adjusted Pressure Absolute Pressure Temperature Relative Humidity Dew Point   
(mb) (inHg) (mb) (inHg) (C) (F) (%) (C) (F)
00:05 1013 29.91 843 24.89 -4.4 24 94 -5.3 22.5
00:10 1013 29.91 843 24.89 -4.5 23.8 94 -5.3 22.5
00:15 1014 29.94 843 24.89 -4.6 23.8 95 -5.2 22.6
00:20 1013 29.91 843 24.89 -4.5 23.8 95 -5.2 22.6
00:25 1013 29.91 842 24.86 -4.5 23.9 95 -5.2 22.7
00:30 1013 29.91 842 24.86 -4.5 23.9 95 -5.2 22.7
00:35 1013 29.91 842 24.86 -4.5 23.9 96 -5.1 22.8
00:40 1013 29.91 843 24.89 -4.4 24 96 -5 23
00:45 1013 29.91 843 24.89 -4.4 24.1 96 -5 23.1
00:50 1013 29.91 843 24.89 -4.3 24.2 96 -4.9 23.2
00:55 1014 29.94 843 24.89 -4.2 24.4 96 -4.8 23.3
01:00 1014 29.94 843 24.89 -4.1 24.5 96 -4.7 23.5
01:05 1014 29.94 843 24.89 -4.1 24.7 96 -4.7 23.6
01:10 1014 29.94 843 24.89 -4.1 24.6 95 -4.9 23.2
01:15 1013 29.91 843 24.89 -4.2 24.4 94 -5.1 22.9
01:20 1013 29.91 843 24.89 -4.5 24 95 -5.2 22.6
01:25 1013 29.91 843 24.89 -4.5 23.8 95 -5.2 22.6
01:30 1013 29.91 842 24.86 -4.5 23.9 94 -5.4 22.4
01:35 1013 29.91 842 24.86 -4.7 23.6 94 -5.5 22.2
01:40 1013 29.91 842 24.86 -4.8 23.4 94 -5.6 21.9
01:45 1013 29.91 842 24.86 -4.9 23.2 94 -5.7 21.7
01:50 1013 29.91 842 24.86 -5.1 22.8 95 -5.8 21.6
01:55 1013 29.91 842 24.86 -5.3 22.5 95 -5.9 21.3
02:00 1013 29.91 842 24.86 -5.3 22.4 96 -5.9 21.4
02:05 1013 29.91 842 24.86 -5.2 22.6 95 -5.8 21.5
02:10 1013 29.91 842 24.86 -5.2 22.6 95 -5.9 21.4
02:15 1013 29.91 842 24.86 -5.1 22.8 95 -5.8 21.5
02:20 1013 29.91 842 24.86 -5.1 22.8 95 -5.8 21.6
02:25 1013 29.91 842 24.86 -5.1 22.9 95 -5.8 21.6
02:30 1013 29.91 842 24.86 -5.1 22.9 95 -5.8 21.6
02:35 1013 29.91 842 24.86 -5 22.9 95 -5.8 21.6
02:40 1013 29.91 842 24.86 -5 22.9 95 -5.8 21.6
02:45 1013 29.91 842 24.86 -5 23 95 -5.8 21.6
02:50 1013 29.91 842 24.86 -5 23 95 -5.8 21.6
02:55 1013 29.91 842 24.86 -5 22.9 95 -5.8 21.6
03:00 1013 29.91 842 24.86 -5.1 22.9 94 -5.8 21.5
03:05 1013 29.91 842 24.86 -5.1 22.8 94 -5.9 21.5
03:10 1013 29.91 842 24.86 -5.1 22.8 94 -5.9 21.4
03:15 1013 29.91 842 24.86 -5.2 22.7 94 -6 21.3
03:20 1013 29.91 842 24.86 -5.2 22.7 94 -6 21.2
03:25 1013 29.91 842 24.86 -5.2 22.6 94 -6 21.2
03:30 1013 29.91 842 24.86 -5.2 22.6 94 -6 21.1
03:35 1013 29.91 842 24.86 -5.3 22.5 94 -6.2 20.9
03:40 1013 29.91 842 24.86 -5.4 22.4 94 -6.2 20.8
03:45 1013 29.91 842 24.86 -5.4 22.2 94 -6.3 20.7
03:50 1013 29.91 842 24.86 -5.5 22 94 -6.3 20.6
03:55 1013 29.91 842 24.86 -5.6 22 94 -6.3 20.6
04:00 1013 29.91 842 24.86 -5.6 22 94 -6.4 20.5
04:05 1013 29.91 842 24.86 -5.5 22.1 95 -6.2 20.8
04:10 1013 29.91 842 24.86 -5.5 22.2 94 -6.2 20.8
04:15 1013 29.91 842 24.86 -5.5 22.2 94 -6.2 20.8
04:20 1013 29.91 842 24.86 -5.5 22.1 94 -6.3 20.7
04:25 1013 29.91 842 24.86 -5.5 22.1 94 -6.3 20.7
04:30 1013 29.91 842 24.86 -5.5 22.2 94 -6.3 20.6
04:35 1013 29.91 842 24.86 -5.5 22.1 94 -6.3 20.6
04:40 1013 29.91 842 24.86 -5.5 22.1 94 -6.4 20.6
04:45 1013 29.91 842 24.86 -5.5 22.1 94 -6.3 20.6
04:50 1013 29.91 843 24.89 -5.5 22 94 -6.4 20.5
04:55 1013 29.91 843 24.89 -5.5 22 94 -6.3 20.6
05:00 1013 29.91 843 24.89 -5.5 22.2 94 -6.3 20.7
05:05 1014 29.94 843 24.89 -5.4 22.2 94 -6.2 20.8
05:10 1014 29.94 843 24.89 -5.4 22.3 94 -6.2 20.8
05:15 1013 29.91 843 24.89 -5.4 22.3 94 -6.3 20.7
05:20 1013 29.91 843 24.89 -5.4 22.2 94 -6.3 20.7
05:25 1013 29.91 843 24.89 -5.5 22.2 93 -6.4 20.4
05:30 1013 29.91 843 24.89 -5.5 22.1 93 -6.4 20.5
05:35 1014 29.94 843 24.89 -5.5 22.1 93 -6.4 20.5
05:40 1013 29.91 843 24.89 -5.6 22 93 -6.5 20.3
05:45 1013 29.91 843 24.89 -5.6 21.9 93 -6.6 20.2
05:50 1014 29.94 843 24.89 -5.7 21.8 93 -6.6 20.1
05:55 1014 29.94 843 24.89 -5.7 21.8 93 -6.6 20.2
06:00 1014 29.94 843 24.89 -5.7 21.8 93 -6.6 20.2
06:05 1014 29.94 843 24.89 -5.7 21.8 93 -6.6 20.2
06:10 1014 29.94 843 24.89 -5.6 21.8 93 -6.6 20.1
06:15 1014 29.94 843 24.89 -5.7 21.8 93 -6.7 20
06:20 1014 29.94 843 24.89 -5.7 21.8 93 -6.6 20.1
06:25 1014 29.94 843 24.89 -5.7 21.8 93 -6.6 20.1
06:30 1014 29.94 843 24.89 -5.7 21.8 93 -6.6 20.1
06:35 1014 29.94 843 24.89 -5.7 21.8 93 -6.6 20.1
06:40 1014 29.94 843 24.89 -5.6 21.8 93 -6.6 20.1
06:45 1014 29.94 843 24.89 -5.6 21.9 93 -6.6 20.1
06:50 1014 29.94 844 24.92 -5.7 21.8 93 -6.6 20.1
06:55 1014 29.94 844 24.92 -5.6 21.9 93 -6.6 20.2
07:00 1014 29.94 844 24.92 -5.6 22 93 -6.6 20.2
07:05 1014 29.94 844 24.92 -5.5 22 92 -6.6 20.1
07:10 1014 29.94 844 24.92 -5.5 22.1 92 -6.6 20.1
07:15 1014 29.94 844 24.92 -5.4 22.3 91 -6.6 20.1
07:20 1014 29.94 844 24.92 -5.4 22.2 91 -6.6 20.1
07:25 1014 29.94 844 24.92 -5.5 22.1 91 -6.7 19.9
07:30 1014 29.94 844 24.92 -5.7 21.8 92 -6.8 19.8
07:35 1014 29.94 844 24.92 -5.7 21.7 92 -6.8 19.8
07:40 1014 29.94 844 24.92 -5.6 21.9 93 -6.5 20.2
07:45 1015 29.97 844 24.92 -5.4 22.4 92 -6.5 20.3
07:50 1015 29.97 844 24.92 -5.4 22.4 92 -6.5 20.4
07:55 1014 29.94 844 24.92 -5 22.9 93 -6.1 21.1
08:00 1014 29.94 844 24.92 -4.4 24 89 -6.1 21.1
08:05 1015 29.97 844 24.92 -4.3 24.3 90 -5.7 21.7
08:10 1015 29.97 844 24.92 -3.9 25 89 -5.5 22.1
08:15 1015 29.97 844 24.92 -3.7 25.4 88 -5.3 22.4
08:20 1015 29.97 844 24.92 -3.5 25.6 89 -5.1 22.9
08:25 1015 29.97 844 24.92 -3.6 25.5 88 -5.3 22.5
08:30 1015 29.97 844 24.92 -3.7 25.3 89 -5.3 22.4
08:35 1015 29.97 844 24.92 -3.7 25.3 88 -5.3 22.4
08:40 1015 29.97 844 24.92 -3.6 25.6 89 -5.1 22.9
08:45 1015 29.97 844 24.92 -3.5 25.8 88 -5.2 22.7
08:50 1015 29.97 844 24.92 -3.3 26 84 -5.6 21.8
08:55 1015 29.97 844 24.92 -3.5 25.7 89 -5.1 22.8
09:00 1015 29.97 844 24.92 -3.3 26.1 89 -4.9 23.2
09:05 1015 29.97 844 24.92 -3.3 26.1 87 -5.2 22.6
09:10 1015 29.97 844 24.92 -3.3 26 87 -5.3 22.5
09:15 1015 29.97 844 24.92 -3.1 26.4 90 -4.6 23.8
09:20 1015 29.97 844 24.92 -2.5 27.5 87 -4.4 24.1
09:25 1015 29.97 844 24.92 -2 28.4 86 -4.1 24.6
09:30 1015 29.97 844 24.92 -1.8 28.8 84 -4.2 24.4
09:35 1015 29.97 844 24.92 -1.6 29.2 84 -3.9 25
09:40 1015 29.97 844 24.92 -1.4 29.5 82 -4 24.8
09:45 1015 29.97 844 24.92 -1.1 29.9 82 -3.8 25.1
09:50 1015 29.97 844 24.92 -0.8 30.6 80 -3.9 25
09:55 1015 29.97 844 24.92 -0.7 30.7 82 -3.5 25.8
10:00 1015 29.97 844 24.92 -0.6 30.9 80 -3.6 25.6
10:05 1015 29.97 844 24.92 -0.4 31.3 79 -3.6 25.4
10:10 1015 29.97 844 24.92 0.4 32.8 80 -2.6 27.4
10:15 1015 29.97 844 24.92 1.4 34.5 78 -2.1 28.3
10:20 1015 29.97 844 24.92 2.1 35.8 77 -1.6 29.1
10:25 1015 29.97 844 24.92 2.9 37.3 67 -2.6 27.3
10:30 1015 29.97 844 24.92 3 37.4 66 -2.8 27
10:35 1015 29.97 844 24.92 2.3 36.1 70 -2.6 27.3
10:40 1015 29.97 844 24.92 2.4 36.3 68 -3 26.7
10:45 1015 29.97 844 24.92 2.2 35.9 70 -2.8 26.9
10:50 1015 29.97 844 24.92 1.9 35.4 71 -2.9 26.9
10:55 1015 29.97 844 24.92 1.9 35.3 70 -3 26.6
11:00 1015 29.97 844 24.92 1.3 34.4 72 -3.2 26.2
11:05 1015 29.97 844 24.92 1.6 34.9 70 -3.3 26
11:10 1015 29.97 844 24.92 2.2 35.9 69 -2.8 26.9
11:15 1015 29.97 844 24.92 2.1 35.8 70 -2.8 26.9
11:20 1015 29.97 844 24.92 1.9 35.3 71 -2.9 26.8
11:25 1015 29.97 844 24.92 2.1 35.8 65 -3.7 25.4
11:30 1015 29.97 844 24.92 2.6 36.6 63 -3.7 25.4
11:35 1015 29.97 844 24.92 2.2 35.9 71 -2.6 27.4
11:40 1015 29.97 844 24.92 1.9 35.4 69 -3.2 26.3
11:45 1015 29.97 844 24.92 2 35.6 65 -4 24.8
11:50 1015 29.97 845 24.95 2.1 35.8 67 -3.3 26
11:55 1015 29.97 845 24.95 2.3 36.1 66 -3.5 25.7
12:00 1015 29.97 845 24.95 2.3 36.2 66 -3.3 26
12:05 1015 29.97 845 24.95 2.8 37 63 -3.6 25.5
12:10 1015 29.97 844 24.92 2.8 37.1 66 -3 26.6
12:15 1015 29.97 844 24.92 2.2 36 68 -3.1 26.5
12:20 1015 29.97 844 24.92 2.2 35.9 65 -3.8 25.2
12:25 1015 29.97 845 24.95 2.1 35.7 68 -3.2 26.3
12:30 1015 29.97 845 24.95 2.2 36 64 -3.8 25.2
12:35 1015 29.97 845 24.95 2.4 36.4 61 -4.3 24.3
12:40 1015 29.97 845 24.95 2.6 36.7 63 -3.7 25.4
12:45 1015 29.97 845 24.95 3.3 37.9 56 -4.6 23.7
12:50 1015 29.97 844 24.92 3.6 38.4 59 -3.7 25.4
12:55 1015 29.97 844 24.92 3.6 38.5 57 -4 24.8
13:00 1015 29.97 844 24.92 4.4 39.9 53 -4.5 24
13:05 1015 29.97 844 24.92 4.7 40.5 55 -3.5 25.7
13:10 1015 29.97 844 24.92 3.7 38.7 57 -4 24.8
13:15 1015 29.97 844 24.92 3.4 38.1 56 -4.7 23.6
13:20 1015 29.97 844 24.92 3.4 38.1 57 -4.3 24.2
13:25 1015 29.97 844 24.92 3.6 38.5 50 -5.8 21.5
13:30 1015 29.97 844 24.92 3.3 37.9 56 -4.6 23.7
13:35 1015 29.97 844 24.92 4 39.2 43 -7.6 18.4
13:40 1015 29.97 844 24.92 2.7 36.8 52 -6.2 20.8
13:45 1015 29.97 844 24.92 3.5 38.3 47 -6.8 19.8
13:50 1015 29.97 844 24.92 2.6 36.6 50 -6.9 19.5
13:55 1015 29.97 844 24.92 3.2 37.7 46 -7.3 18.8
14:00 1015 29.97 844 24.92 2.8 37 49 -6.8 19.8
14:05 1015 29.97 844 24.92 2.8 37 46 -7.7 18.1
14:10 1015 29.97 844 24.92 2.9 37.2 44 -8.1 17.4
14:15 1015 29.97 844 24.92 2.5 36.6 44 -8.5 16.6
14:20 1015 29.97 844 24.92 2.8 37.1 44 -8.3 17
14:25 1015 29.97 844 24.92 2.9 37.1 43 -8.5 16.7
14:30 1015 29.97 844 24.92 2.4 36.4 43 -9.1 15.7
14:35 1015 29.97 844 24.92 3 37.5 41 -8.9 16
14:40 1015 29.97 844 24.92 2.3 36.1 47 -7.8 17.9
14:45 1015 29.97 844 24.92 2.7 36.9 43 -8.8 16.2
14:50 1015 29.97 844 24.92 1.9 35.4 42 -9.6 14.7
14:55 1015 29.97 844 24.92 1.8 35.2 41 -10.1 13.9
15:00 1015 29.97 844 24.92 2.4 36.3 40 -10 14
15:05 1015 29.97 844 24.92 2.2 36 43 -9 15.8
15:10 1015 29.97 844 24.92 2.2 35.9 43 -9.1 15.6
15:15 1015 29.97 844 24.92 3 37.5 40 -9.3 15.3
15:20 1015 29.97 844 24.92 2.5 36.5 42 -9.1 15.6
15:25 1015 29.97 844 24.92 3.1 37.5 35 -10.9 12.4
15:30 1014 29.94 844 24.92 3 37.3 38 -10.2 13.7
15:35 1014 29.94 844 24.92 2.9 37.2 36 -10.6 12.9
15:40 1014 29.94 844 24.92 4.3 39.8 35 -10 14
15:45 1014 29.94 844 24.92 4.9 40.8 35 -9.5 14.9
15:50 1014 29.94 844 24.92 4.6 40.4 34 -10 14
15:55 1014 29.94 843 24.89 4.9 40.8 35 -9.4 15.1
16:00 1014 29.94 843 24.89 5.1 41.1 35 -9.2 15.4
16:05 1014 29.94 843 24.89 5 41 31 -10.6 12.9
16:10 1014 29.94 843 24.89 4.7 40.5 35 -9.6 14.8
16:15 1014 29.94 843 24.89 5.4 41.7 33 -9.8 14.3
16:20 1014 29.94 843 24.89 5.6 42 32 -10.1 13.9
16:25 1014 29.94 843 24.89 4.3 39.8 33 -10.5 13
16:30 1014 29.94 843 24.89 3.7 38.7 36 -10.1 13.8
16:35 1014 29.94 843 24.89 4.5 40.1 29 -12 10.5
16:40 1014 29.94 843 24.89 4.4 39.8 30 -11.6 11.1
16:45 1014 29.94 843 24.89 3.8 38.8 32 -11.6 11.1
16:50 1014 29.94 843 24.89 3.7 38.6 32 -11.5 11.3
16:55 1014 29.94 843 24.89 3.3 37.9 33 -11.6 11.1
17:00 1014 29.94 843 24.89 4 39.2 31 -11.8 10.8
17:05 1014 29.94 843 24.89 4.3 39.7 28 -12.7 9.1
17:10 1014 29.94 843 24.89 4.3 39.8 31 -11.5 11.3
17:15 1014 29.94 843 24.89 3.8 38.9 31 -11.7 11
17:20 1014 29.94 843 24.89 3.6 38.5 29 -12.8 9
17:25 1014 29.94 843 24.89 3.8 38.8 29 -12.8 9
17:30 1014 29.94 843 24.89 4 39.2 29 -12.7 9.2
17:35 1014 29.94 843 24.89 4.5 40.1 30 -11.7 10.9
17:40 1014 29.94 843 24.89 4.3 39.8 31 -11.3 11.7
17:45 1014 29.94 843 24.89 4.3 39.7 29 -12.3 9.9
17:50 1014 29.94 843 24.89 4.6 40.3 30 -11.5 11.3
17:55 1014 29.94 843 24.89 4.9 40.9 29 -11.5 11.3
18:00 1014 29.94 843 24.89 4.7 40.5 28 -12.3 9.9
18:05 1014 29.94 843 24.89 4.8 40.7 30 -11.3 11.7
18:10 1014 29.94 843 24.89 4.6 40.4 29 -11.8 10.8
18:15 1014 29.94 843 24.89 4.6 40.3 29 -12.2 10.1
18:20 1014 29.94 843 24.89 4.9 40.8 32 -10.6 12.8
18:25 1014 29.94 843 24.89 4.1 39.5 31 -11.7 11
18:30 1014 29.94 843 24.89 3.5 38.3 36 -10.3 13.5
18:35 1014 29.94 843 24.89 2.8 37.1 35 -11.1 12
18:40 1014 29.94 843 24.89 2.6 36.7 37 -10.7 12.8
18:45 1014 29.94 843 24.89 2.6 36.7 40 -9.6 14.7
18:50 1014 29.94 843 24.89 2.4 36.4 39 -10.3 13.5
18:55 1014 29.94 843 24.89 2.5 36.5 40 -9.8 14.4
19:00 1014 29.94 843 24.89 2.6 36.8 38 -10.3 13.4
19:05 1014 29.94 843 24.89 2.5 36.4 38 -10.3 13.4
19:10 1014 29.94 843 24.89 2.4 36.4 39 -10 13.9
19:15 1014 29.94 843 24.89 2.5 36.5 43 -8.7 16.3
19:20 1014 29.94 843 24.89 2.5 36.5 45 -8.3 17.1
19:25 1014 29.94 843 24.89 2.5 36.5 43 -8.7 16.3
19:30 1014 29.94 843 24.89 2.5 36.5 46 -8 17.6
19:35 1014 29.94 843 24.89 2.4 36.3 44 -8.7 16.3
19:40 1014 29.94 843 24.89 2.4 36.3 47 -7.9 17.8
19:45 1014 29.94 843 24.89 2.4 36.4 41 -9.4 15
19:50 1014 29.94 843 24.89 2.4 36.4 48 -7.4 18.7
19:55 1014 29.94 843 24.89 2.4 36.3 47 -7.9 17.8
20:00 1014 29.94 843 24.89 2.3 36.1 45 -8.5 16.8
20:05 1014 29.94 843 24.89 2.1 35.8 41 -9.7 14.6
20:10 1014 29.94 843 24.89 2.2 36 42 -9.4 15.1
20:15 1014 29.94 843 24.89 2.3 36.1 45 -8.6 16.6
20:20 1014 29.94 843 24.89 2.2 36 49 -7.4 18.7
20:25 1014 29.94 843 24.89 2.2 35.9 42 -9.5 15
20:30 1014 29.94 843 24.89 2.2 36 48 -7.6 18.4
20:35 1014 29.94 843 24.89 2 35.6 50 -7.2 19
20:40 1014 29.94 843 24.89 1.2 34.1 52 -7.7 18.2
20:45 1014 29.94 843 24.89 0.9 33.6 54 -7.4 18.7
20:50 1014 29.94 843 24.89 1 33.8 53 -7.5 18.4
20:55 1014 29.94 844 24.92 1 33.8 56 -6.8 19.8
21:00 1014 29.94 844 24.92 0.4 32.8 62 -5.9 21.3
21:05 1014 29.94 844 24.92 -0.3 31.4 68 -5.6 22
21:10 1015 29.97 844 24.92 -0.6 30.9 62 -7 19.3
21:15 1015 29.97 844 24.92 -0.4 31.2 63 -6.7 19.9
21:20 1015 29.97 844 24.92 -0.4 31.3 65 -6.2 20.8
21:25 1015 29.97 844 24.92 -0.6 31 67 -5.9 21.4
21:30 1015 29.97 844 24.92 -0.5 31.1 65 -6.3 20.7
21:35 1015 29.97 844 24.92 -0.6 31 66 -6.1 20.9
21:40 1015 29.97 844 24.92 -0.7 30.7 67 -6 21.2
21:45 1015 29.97 844 24.92 -0.8 30.5 66 -6.4 20.5
21:50 1015 29.97 844 24.92 -0.9 30.4 68 -6 21.2
21:55 1015 29.97 844 24.92 -0.9 30.4 70 -5.8 21.6
22:00 1015 29.97 844 24.92 -1 30.1 74 -5.1 22.9
22:05 1015 29.97 844 24.92 -1.2 29.9 77 -4.7 23.5
22:10 1015 29.97 844 24.92 -1.2 29.8 78 -4.6 23.7
22:15 1015 29.97 844 24.92 -1.3 29.7 79 -4.5 23.9
22:20 1015 29.97 844 24.92 -1.3 29.7 78 -4.6 23.7
22:25 1015 29.97 844 24.92 -1.4 29.5 78 -4.7 23.6
22:30 1015 29.97 844 24.92 -1.4 29.4 78 -4.7 23.5
22:35 1015 29.97 844 24.92 -1.5 29.3 78 -4.8 23.3
22:40 1015 29.97 844 24.92 -1.5 29.2 79 -4.6 23.6
22:45 1015 29.97 844 24.92 -1.7 28.9 79 -4.8 23.3
22:50 1015 29.97 844 24.92 -1.9 28.6 79 -5.1 22.9
22:55 1015 29.97 844 24.92 -2 28.4 79 -5.2 22.6
23:00 1015 29.97 844 24.92 -2 28.4 78 -5.4 22.3
23:05 1015 29.97 844 24.92 -1.9 28.5 76 -5.6 21.9
23:10 1015 29.97 844 24.92 -1.9 28.6 73 -6 21.2
23:15 1015 29.97 844 24.92 -1.7 28.9 71 -6.3 20.7
23:20 1015 29.97 844 24.92 -1.6 29.1 72 -6 21.2
23:25 1015 29.97 844 24.92 -1.8 28.7 74 -5.8 21.5
23:30 1015 29.97 844 24.92 -2 28.4 76 -5.6 21.9
23:35 1015 29.97 844 24.92 -2.1 28.2 78 -5.4 22.2
23:40 1015 29.97 844 24.92 -2.3 27.9 80 -5.2 22.6
23:45 1015 29.97 844 24.92 -2.3 27.8 80 -5.4 22.3
23:50 1015 29.97 844 24.92 -2.3 27.9 80 -5.4 22.3
23:55 1015 29.97 844 24.92 -2.3 27.9 79 -5.5 22.2
24:00 1015 29.97 844 24.92 -2.3 27.8 79 -5.5 22.2